sensor_id;sensor_type;location;lat;lon;timestamp;temperature;humidity
10384;DHT22;5238;43.508;4.980;2023-08-21T00:01:31;28.10;91.30
10384;DHT22;5238;43.508;4.980;2023-08-21T00:03:58;28.10;91.30
10384;DHT22;5238;43.508;4.980;2023-08-21T00:06:25;28.10;91.30
10384;DHT22;5238;43.508;4.980;2023-08-21T00:08:52;28.00;91.30
10384;DHT22;5238;43.508;4.980;2023-08-21T00:11:19;28.00;91.30
10384;DHT22;5238;43.508;4.980;2023-08-21T00:13:46;28.00;91.30
10384;DHT22;5238;43.508;4.980;2023-08-21T00:16:16;28.00;91.30
10384;DHT22;5238;43.508;4.980;2023-08-21T00:18:44;27.90;91.30
10384;DHT22;5238;43.508;4.980;2023-08-21T00:21:11;27.90;91.30
10384;DHT22;5238;43.508;4.980;2023-08-21T00:23:38;27.90;91.30
10384;DHT22;5238;43.508;4.980;2023-08-21T00:26:05;27.90;91.30
10384;DHT22;5238;43.508;4.980;2023-08-21T00:28:32;27.90;91.30
10384;DHT22;5238;43.508;4.980;2023-08-21T00:31:01;27.90;91.30
10384;DHT22;5238;43.508;4.980;2023-08-21T00:33:28;27.80;91.30
10384;DHT22;5238;43.508;4.980;2023-08-21T00:35:57;27.80;91.30
10384;DHT22;5238;43.508;4.980;2023-08-21T00:38:24;27.80;91.30
10384;DHT22;5238;43.508;4.980;2023-08-21T00:40:51;27.80;91.30
10384;DHT22;5238;43.508;4.980;2023-08-21T00:43:19;27.80;91.30
10384;DHT22;5238;43.508;4.980;2023-08-21T00:45:46;27.70;91.30
10384;DHT22;5238;43.508;4.980;2023-08-21T00:48:14;27.70;91.30
10384;DHT22;5238;43.508;4.980;2023-08-21T00:50:42;27.70;91.30
10384;DHT22;5238;43.508;4.980;2023-08-21T00:53:11;27.70;91.30
10384;DHT22;5238;43.508;4.980;2023-08-21T00:55:38;27.70;91.30
10384;DHT22;5238;43.508;4.980;2023-08-21T00:58:05;27.70;91.30
10384;DHT22;5238;43.508;4.980;2023-08-21T01:00:33;27.70;91.30
10384;DHT22;5238;43.508;4.980;2023-08-21T01:03:00;27.70;91.30
10384;DHT22;5238;43.508;4.980;2023-08-21T01:05:28;27.60;91.30
10384;DHT22;5238;43.508;4.980;2023-08-21T01:07:59;27.60;91.30
10384;DHT22;5238;43.508;4.980;2023-08-21T01:10:39;27.60;91.30
10384;DHT22;5238;43.508;4.980;2023-08-21T01:13:19;27.60;91.30
10384;DHT22;5238;43.508;4.980;2023-08-21T01:15:49;27.60;91.30
10384;DHT22;5238;43.508;4.980;2023-08-21T01:18:18;27.60;91.30
10384;DHT22;5238;43.508;4.980;2023-08-21T01:20:45;27.60;91.30
10384;DHT22;5238;43.508;4.980;2023-08-21T01:23:30;27.60;91.30
10384;DHT22;5238;43.508;4.980;2023-08-21T01:25:57;27.60;91.30
10384;DHT22;5238;43.508;4.980;2023-08-21T01:28:24;27.60;91.30
10384;DHT22;5238;43.508;4.980;2023-08-21T01:30:56;27.60;91.30
10384;DHT22;5238;43.508;4.980;2023-08-21T01:33:25;27.60;91.30
10384;DHT22;5238;43.508;4.980;2023-08-21T01:35:52;27.60;91.30
10384;DHT22;5238;43.508;4.980;2023-08-21T01:38:21;27.60;91.30
10384;DHT22;5238;43.508;4.980;2023-08-21T01:40:50;27.60;91.30
10384;DHT22;5238;43.508;4.980;2023-08-21T01:43:17;27.60;91.30
10384;DHT22;5238;43.508;4.980;2023-08-21T01:45:46;27.60;91.30
10384;DHT22;5238;43.508;4.980;2023-08-21T01:48:13;27.70;91.30
10384;DHT22;5238;43.508;4.980;2023-08-21T01:50:40;27.70;91.30
10384;DHT22;5238;43.508;4.980;2023-08-21T01:53:07;27.70;91.30
10384;DHT22;5238;43.508;4.980;2023-08-21T01:55:34;27.70;91.30
10384;DHT22;5238;43.508;4.980;2023-08-21T01:58:02;27.70;91.30
10384;DHT22;5238;43.508;4.980;2023-08-21T02:00:29;27.70;91.30
10384;DHT22;5238;43.508;4.980;2023-08-21T02:02:56;27.60;91.30
10384;DHT22;5238;43.508;4.980;2023-08-21T02:05:23;27.60;91.30
10384;DHT22;5238;43.508;4.980;2023-08-21T02:07:50;27.50;91.30
10384;DHT22;5238;43.508;4.980;2023-08-21T02:10:17;27.50;91.30
10384;DHT22;5238;43.508;4.980;2023-08-21T02:12:44;27.40;91.30
10384;DHT22;5238;43.508;4.980;2023-08-21T02:15:12;27.40;91.30
10384;DHT22;5238;43.508;4.980;2023-08-21T02:17:40;27.40;91.30
10384;DHT22;5238;43.508;4.980;2023-08-21T02:20:09;27.40;91.30
10384;DHT22;5238;43.508;4.980;2023-08-21T02:22:36;27.30;91.30
10384;DHT22;5238;43.508;4.980;2023-08-21T02:25:04;27.30;91.30
10384;DHT22;5238;43.508;4.980;2023-08-21T02:27:31;27.20;91.30
10384;DHT22;5238;43.508;4.980;2023-08-21T02:29:57;27.20;91.30
10384;DHT22;5238;43.508;4.980;2023-08-21T02:32:26;27.10;91.30
10384;DHT22;5238;43.508;4.980;2023-08-21T02:34:53;27.10;91.30
10384;DHT22;5238;43.508;4.980;2023-08-21T02:37:20;27.10;91.30
10384;DHT22;5238;43.508;4.980;2023-08-21T02:39:47;27.10;91.30
10384;DHT22;5238;43.508;4.980;2023-08-21T02:42:14;27.10;91.30
10384;DHT22;5238;43.508;4.980;2023-08-21T02:44:41;27.20;91.30
10384;DHT22;5238;43.508;4.980;2023-08-21T02:47:08;27.10;91.30
10384;DHT22;5238;43.508;4.980;2023-08-21T02:49:36;27.20;91.30
10384;DHT22;5238;43.508;4.980;2023-08-21T02:52:03;27.20;91.30
10384;DHT22;5238;43.508;4.980;2023-08-21T02:54:31;27.20;91.30
10384;DHT22;5238;43.508;4.980;2023-08-21T02:56:58;27.20;91.30
10384;DHT22;5238;43.508;4.980;2023-08-21T02:59:25;27.10;91.30
10384;DHT22;5238;43.508;4.980;2023-08-21T03:01:52;27.10;91.30
10384;DHT22;5238;43.508;4.980;2023-08-21T03:04:19;27.10;91.30
10384;DHT22;5238;43.508;4.980;2023-08-21T03:06:47;27.10;91.30
10384;DHT22;5238;43.508;4.980;2023-08-21T03:09:14;27.10;91.30
10384;DHT22;5238;43.508;4.980;2023-08-21T03:11:41;27.10;91.30
10384;DHT22;5238;43.508;4.980;2023-08-21T03:14:08;27.10;91.30
10384;DHT22;5238;43.508;4.980;2023-08-21T03:16:35;27.10;91.30
10384;DHT22;5238;43.508;4.980;2023-08-21T03:19:02;27.00;91.30
10384;DHT22;5238;43.508;4.980;2023-08-21T03:21:29;27.00;91.30
10384;DHT22;5238;43.508;4.980;2023-08-21T03:23:58;27.00;91.30
10384;DHT22;5238;43.508;4.980;2023-08-21T03:26:25;27.00;91.30
10384;DHT22;5238;43.508;4.980;2023-08-21T03:28:52;27.00;91.30
10384;DHT22;5238;43.508;4.980;2023-08-21T03:31:19;27.00;91.30
10384;DHT22;5238;43.508;4.980;2023-08-21T03:33:46;26.90;91.30
10384;DHT22;5238;43.508;4.980;2023-08-21T03:36:13;26.90;91.30
10384;DHT22;5238;43.508;4.980;2023-08-21T03:38:40;26.90;91.30
10384;DHT22;5238;43.508;4.980;2023-08-21T03:41:09;26.90;91.30
10384;DHT22;5238;43.508;4.980;2023-08-21T03:43:35;26.80;91.30
10384;DHT22;5238;43.508;4.980;2023-08-21T03:46:02;26.80;91.30
10384;DHT22;5238;43.508;4.980;2023-08-21T03:48:29;26.80;91.30
10384;DHT22;5238;43.508;4.980;2023-08-21T03:50:56;26.70;91.30
10384;DHT22;5238;43.508;4.980;2023-08-21T03:53:23;26.70;91.30
10384;DHT22;5238;43.508;4.980;2023-08-21T03:55:50;26.70;91.30
10384;DHT22;5238;43.508;4.980;2023-08-21T03:58:19;26.60;91.30
10384;DHT22;5238;43.508;4.980;2023-08-21T04:00:46;26.60;91.30
10384;DHT22;5238;43.508;4.980;2023-08-21T04:03:13;26.60;91.30
10384;DHT22;5238;43.508;4.980;2023-08-21T04:05:40;26.50;91.30
10384;DHT22;5238;43.508;4.980;2023-08-21T04:08:07;26.50;91.30
10384;DHT22;5238;43.508;4.980;2023-08-21T04:10:34;26.50;91.30
10384;DHT22;5238;43.508;4.980;2023-08-21T04:13:01;26.50;91.30
10384;DHT22;5238;43.508;4.980;2023-08-21T04:15:29;26.40;91.30
10384;DHT22;5238;43.508;4.980;2023-08-21T04:17:56;26.40;91.30
10384;DHT22;5238;43.508;4.980;2023-08-21T04:20:23;26.40;91.30
10384;DHT22;5238;43.508;4.980;2023-08-21T04:22:50;26.40;91.30
10384;DHT22;5238;43.508;4.980;2023-08-21T04:25:17;26.30;91.30
10384;DHT22;5238;43.508;4.980;2023-08-21T04:27:44;26.30;91.30
10384;DHT22;5238;43.508;4.980;2023-08-21T04:30:12;26.30;91.30
10384;DHT22;5238;43.508;4.980;2023-08-21T04:32:40;26.30;91.30
10384;DHT22;5238;43.508;4.980;2023-08-21T04:35:08;26.20;91.30
10384;DHT22;5238;43.508;4.980;2023-08-21T04:37:37;26.20;91.30
10384;DHT22;5238;43.508;4.980;2023-08-21T04:40:05;26.20;91.30
10384;DHT22;5238;43.508;4.980;2023-08-21T04:42:32;26.20;91.30
10384;DHT22;5238;43.508;4.980;2023-08-21T04:44:59;26.20;91.30
10384;DHT22;5238;43.508;4.980;2023-08-21T04:47:28;26.10;91.30
10384;DHT22;5238;43.508;4.980;2023-08-21T04:49:56;26.00;91.30
10384;DHT22;5238;43.508;4.980;2023-08-21T04:52:23;26.00;91.30
10384;DHT22;5238;43.508;4.980;2023-08-21T04:54:51;25.90;91.30
10384;DHT22;5238;43.508;4.980;2023-08-21T04:57:18;25.90;91.30
10384;DHT22;5238;43.508;4.980;2023-08-21T04:59:46;25.90;91.30
10384;DHT22;5238;43.508;4.980;2023-08-21T05:02:13;25.80;91.30
10384;DHT22;5238;43.508;4.980;2023-08-21T05:04:40;25.80;91.30
10384;DHT22;5238;43.508;4.980;2023-08-21T05:07:09;25.80;91.30
10384;DHT22;5238;43.508;4.980;2023-08-21T05:09:36;25.80;91.30
10384;DHT22;5238;43.508;4.980;2023-08-21T05:12:03;25.80;91.30
10384;DHT22;5238;43.508;4.980;2023-08-21T05:14:30;25.80;91.30
10384;DHT22;5238;43.508;4.980;2023-08-21T05:16:57;25.80;91.30
10384;DHT22;5238;43.508;4.980;2023-08-21T05:19:24;25.80;91.30
10384;DHT22;5238;43.508;4.980;2023-08-21T05:21:51;25.80;91.30
10384;DHT22;5238;43.508;4.980;2023-08-21T05:24:20;25.80;91.30
10384;DHT22;5238;43.508;4.980;2023-08-21T05:26:46;25.90;91.30
10384;DHT22;5238;43.508;4.980;2023-08-21T05:29:13;25.90;91.30
10384;DHT22;5238;43.508;4.980;2023-08-21T05:31:41;25.90;91.30
10384;DHT22;5238;43.508;4.980;2023-08-21T05:34:08;25.90;91.30
10384;DHT22;5238;43.508;4.980;2023-08-21T05:36:35;26.00;91.30
10384;DHT22;5238;43.508;4.980;2023-08-21T05:39:02;26.00;91.30
10384;DHT22;5238;43.508;4.980;2023-08-21T05:41:33;26.10;91.30
10384;DHT22;5238;43.508;4.980;2023-08-21T05:44:00;26.10;91.30
10384;DHT22;5238;43.508;4.980;2023-08-21T05:46:27;26.20;91.30
10384;DHT22;5238;43.508;4.980;2023-08-21T05:48:54;26.20;91.30
10384;DHT22;5238;43.508;4.980;2023-08-21T05:51:21;26.30;91.30
10384;DHT22;5238;43.508;4.980;2023-08-21T05:53:48;26.40;91.30
10384;DHT22;5238;43.508;4.980;2023-08-21T05:56:15;26.40;91.30
10384;DHT22;5238;43.508;4.980;2023-08-21T05:58:43;26.50;91.30
10384;DHT22;5238;43.508;4.980;2023-08-21T06:01:11;26.60;91.30
10384;DHT22;5238;43.508;4.980;2023-08-21T06:03:38;26.70;91.30
10384;DHT22;5238;43.508;4.980;2023-08-21T06:06:05;26.80;91.30
10384;DHT22;5238;43.508;4.980;2023-08-21T06:08:32;26.80;91.30
10384;DHT22;5238;43.508;4.980;2023-08-21T06:10:59;27.00;91.30
10384;DHT22;5238;43.508;4.980;2023-08-21T06:13:26;27.00;91.30
10384;DHT22;5238;43.508;4.980;2023-08-21T06:15:54;27.20;91.30
10384;DHT22;5238;43.508;4.980;2023-08-21T06:18:21;27.30;91.30
10384;DHT22;5238;43.508;4.980;2023-08-21T06:20:48;27.40;91.30
10384;DHT22;5238;43.508;4.980;2023-08-21T06:23:19;27.50;91.30
10384;DHT22;5238;43.508;4.980;2023-08-21T06:25:47;27.70;91.30
10384;DHT22;5238;43.508;4.980;2023-08-21T06:28:14;27.80;91.30
10384;DHT22;5238;43.508;4.980;2023-08-21T06:30:41;28.00;91.30
10384;DHT22;5238;43.508;4.980;2023-08-21T06:33:10;28.20;91.30
10384;DHT22;5238;43.508;4.980;2023-08-21T06:35:36;28.40;91.30
10384;DHT22;5238;43.508;4.980;2023-08-21T06:38:04;28.60;91.30
10384;DHT22;5238;43.508;4.980;2023-08-21T06:40:31;28.90;91.30
10384;DHT22;5238;43.508;4.980;2023-08-21T06:42:58;29.20;91.30
10384;DHT22;5238;43.508;4.980;2023-08-21T06:45:25;29.40;91.30
10384;DHT22;5238;43.508;4.980;2023-08-21T06:47:55;29.60;91.30
10384;DHT22;5238;43.508;4.980;2023-08-21T06:50:24;29.90;91.30
10384;DHT22;5238;43.508;4.980;2023-08-21T06:52:50;30.10;91.30
10384;DHT22;5238;43.508;4.980;2023-08-21T06:55:17;30.40;91.30
10384;DHT22;5238;43.508;4.980;2023-08-21T06:57:44;30.70;91.30
10384;DHT22;5238;43.508;4.980;2023-08-21T07:00:12;31.00;91.30
10384;DHT22;5238;43.508;4.980;2023-08-21T07:02:40;31.40;91.30
10384;DHT22;5238;43.508;4.980;2023-08-21T07:05:07;31.70;91.30
10384;DHT22;5238;43.508;4.980;2023-08-21T07:07:36;32.20;91.30
10384;DHT22;5238;43.508;4.980;2023-08-21T07:10:03;32.50;91.30
10384;DHT22;5238;43.508;4.980;2023-08-21T07:12:30;32.90;91.30
10384;DHT22;5238;43.508;4.980;2023-08-21T07:14:57;33.30;91.30
10384;DHT22;5238;43.508;4.980;2023-08-21T07:17:24;33.60;91.30
10384;DHT22;5238;43.508;4.980;2023-08-21T07:19:51;34.00;91.30
10384;DHT22;5238;43.508;4.980;2023-08-21T07:22:19;34.30;91.30
10384;DHT22;5238;43.508;4.980;2023-08-21T07:24:47;34.50;91.30
10384;DHT22;5238;43.508;4.980;2023-08-21T07:27:14;34.60;91.30
10384;DHT22;5238;43.508;4.980;2023-08-21T07:29:41;34.70;91.30
10384;DHT22;5238;43.508;4.980;2023-08-21T07:32:08;35.00;91.30
10384;DHT22;5238;43.508;4.980;2023-08-21T07:34:35;35.20;91.30
10384;DHT22;5238;43.508;4.980;2023-08-21T07:37:02;35.40;91.30
10384;DHT22;5238;43.508;4.980;2023-08-21T07:39:29;35.70;91.30
10384;DHT22;5238;43.508;4.980;2023-08-21T07:41:57;36.00;91.30
10384;DHT22;5238;43.508;4.980;2023-08-21T07:44:24;36.30;91.30
10384;DHT22;5238;43.508;4.980;2023-08-21T07:46:51;36.50;91.30
10384;DHT22;5238;43.508;4.980;2023-08-21T07:49:18;36.80;91.30
10384;DHT22;5238;43.508;4.980;2023-08-21T07:51:45;37.10;91.30
10384;DHT22;5238;43.508;4.980;2023-08-21T07:54:12;37.30;91.30
10384;DHT22;5238;43.508;4.980;2023-08-21T07:56:39;37.50;91.30
10384;DHT22;5238;43.508;4.980;2023-08-21T07:59:08;37.80;91.30
10384;DHT22;5238;43.508;4.980;2023-08-21T08:01:35;38.10;91.30
10384;DHT22;5238;43.508;4.980;2023-08-21T08:04:02;38.40;91.30
10384;DHT22;5238;43.508;4.980;2023-08-21T08:06:29;38.60;90.00
10384;DHT22;5238;43.508;4.980;2023-08-21T08:08:56;38.90;89.70
10384;DHT22;5238;43.508;4.980;2023-08-21T08:11:23;39.20;89.00
10384;DHT22;5238;43.508;4.980;2023-08-21T08:13:50;39.60;88.70
10384;DHT22;5238;43.508;4.980;2023-08-21T08:16:18;39.60;86.00
10384;DHT22;5238;43.508;4.980;2023-08-21T08:18:45;39.90;86.00
10384;DHT22;5238;43.508;4.980;2023-08-21T08:21:12;40.00;85.30
10384;DHT22;5238;43.508;4.980;2023-08-21T08:23:39;40.20;85.10
10384;DHT22;5238;43.508;4.980;2023-08-21T08:26:06;40.50;83.70
10384;DHT22;5238;43.508;4.980;2023-08-21T08:28:34;40.70;83.50
10384;DHT22;5238;43.508;4.980;2023-08-21T08:31:01;40.90;83.30
10384;DHT22;5238;43.508;4.980;2023-08-21T08:33:30;41.20;82.60
10384;DHT22;5238;43.508;4.980;2023-08-21T08:35:56;41.40;81.70
10384;DHT22;5238;43.508;4.980;2023-08-21T08:38:23;41.80;81.30
10384;DHT22;5238;43.508;4.980;2023-08-21T08:40:51;41.90;80.30
10384;DHT22;5238;43.508;4.980;2023-08-21T08:43:21;42.20;80.80
10384;DHT22;5238;43.508;4.980;2023-08-21T08:45:49;42.40;79.70
10384;DHT22;5238;43.508;4.980;2023-08-21T08:48:18;42.60;78.10
10384;DHT22;5238;43.508;4.980;2023-08-21T08:50:47;42.50;78.00
10384;DHT22;5238;43.508;4.980;2023-08-21T08:53:15;42.80;77.60
10384;DHT22;5238;43.508;4.980;2023-08-21T08:55:43;43.20;77.30
10384;DHT22;5238;43.508;4.980;2023-08-21T08:58:10;43.50;77.00
10384;DHT22;5238;43.508;4.980;2023-08-21T09:00:37;43.90;76.80
10384;DHT22;5238;43.508;4.980;2023-08-21T09:03:04;44.30;75.60
10384;DHT22;5238;43.508;4.980;2023-08-21T09:05:34;44.70;74.60
10384;DHT22;5238;43.508;4.980;2023-08-21T09:08:10;45.00;74.40
10384;DHT22;5238;43.508;4.980;2023-08-21T09:10:37;45.30;73.90
10384;DHT22;5238;43.508;4.980;2023-08-21T09:13:10;45.40;75.50
10384;DHT22;5238;43.508;4.980;2023-08-21T09:15:37;45.60;74.40
10384;DHT22;5238;43.508;4.980;2023-08-21T09:18:04;45.60;73.20
10384;DHT22;5238;43.508;4.980;2023-08-21T09:20:35;45.80;71.60
10384;DHT22;5238;43.508;4.980;2023-08-21T09:23:04;46.00;71.60
10384;DHT22;5238;43.508;4.980;2023-08-21T09:25:34;46.00;70.90
10384;DHT22;5238;43.508;4.980;2023-08-21T09:28:05;46.20;70.80
10384;DHT22;5238;43.508;4.980;2023-08-21T09:30:44;46.50;71.60
10384;DHT22;5238;43.508;4.980;2023-08-21T09:33:11;46.70;71.80
10384;DHT22;5238;43.508;4.980;2023-08-21T09:35:38;46.80;70.90
10384;DHT22;5238;43.508;4.980;2023-08-21T09:38:09;47.00;71.30
10384;DHT22;5238;43.508;4.980;2023-08-21T09:40:39;47.20;72.60
10384;DHT22;5238;43.508;4.980;2023-08-21T09:43:08;47.30;71.50
10384;DHT22;5238;43.508;4.980;2023-08-21T09:45:35;47.40;72.70
10384;DHT22;5238;43.508;4.980;2023-08-21T09:48:03;47.50;71.60
10384;DHT22;5238;43.508;4.980;2023-08-21T09:50:31;47.70;72.50
10384;DHT22;5238;43.508;4.980;2023-08-21T09:52:58;47.70;71.10
10384;DHT22;5238;43.508;4.980;2023-08-21T09:55:27;47.80;70.40
10384;DHT22;5238;43.508;4.980;2023-08-21T09:57:57;47.80;69.90
10384;DHT22;5238;43.508;4.980;2023-08-21T10:00:28;47.80;71.90
10384;DHT22;5238;43.508;4.980;2023-08-21T10:03:00;47.90;70.90
10384;DHT22;5238;43.508;4.980;2023-08-21T10:05:29;48.00;71.10
10384;DHT22;5238;43.508;4.980;2023-08-21T10:08:00;48.00;70.00
10384;DHT22;5238;43.508;4.980;2023-08-21T10:10:30;48.00;69.00
10384;DHT22;5238;43.508;4.980;2023-08-21T10:12:58;47.90;69.50
10384;DHT22;5238;43.508;4.980;2023-08-21T10:15:25;47.90;69.00
10384;DHT22;5238;43.508;4.980;2023-08-21T10:17:52;47.80;69.80
10384;DHT22;5238;43.508;4.980;2023-08-21T10:20:21;47.60;69.80
10384;DHT22;5238;43.508;4.980;2023-08-21T10:22:50;47.50;69.80
10384;DHT22;5238;43.508;4.980;2023-08-21T10:25:19;47.30;70.10
10384;DHT22;5238;43.508;4.980;2023-08-21T10:27:53;47.10;70.20
10384;DHT22;5238;43.508;4.980;2023-08-21T10:30:21;46.80;70.60
10384;DHT22;5238;43.508;4.980;2023-08-21T10:32:49;46.70;71.80
10384;DHT22;5238;43.508;4.980;2023-08-21T10:35:19;46.60;71.80
10384;DHT22;5238;43.508;4.980;2023-08-21T10:38:06;46.50;71.30
10384;DHT22;5238;43.508;4.980;2023-08-21T10:40:33;46.40;71.80
10384;DHT22;5238;43.508;4.980;2023-08-21T10:43:02;46.30;71.50
10384;DHT22;5238;43.508;4.980;2023-08-21T10:45:30;46.20;72.40
10384;DHT22;5238;43.508;4.980;2023-08-21T10:47:57;46.20;72.60
10384;DHT22;5238;43.508;4.980;2023-08-21T10:50:24;46.10;72.70
10384;DHT22;5238;43.508;4.980;2023-08-21T10:52:52;46.00;73.40
10384;DHT22;5238;43.508;4.980;2023-08-21T10:55:20;46.00;73.70
10384;DHT22;5238;43.508;4.980;2023-08-21T10:57:48;45.90;74.20
10384;DHT22;5238;43.508;4.980;2023-08-21T11:00:18;45.80;74.00
10384;DHT22;5238;43.508;4.980;2023-08-21T11:02:47;45.80;74.10
10384;DHT22;5238;43.508;4.980;2023-08-21T11:05:15;45.70;75.00
10384;DHT22;5238;43.508;4.980;2023-08-21T11:07:43;45.60;74.80
10384;DHT22;5238;43.508;4.980;2023-08-21T11:10:11;45.60;75.20
10384;DHT22;5238;43.508;4.980;2023-08-21T11:12:48;45.40;74.80
10384;DHT22;5238;43.508;4.980;2023-08-21T11:15:17;45.40;75.30
10384;DHT22;5238;43.508;4.980;2023-08-21T11:17:51;45.30;76.10
10384;DHT22;5238;43.508;4.980;2023-08-21T11:20:18;45.10;76.30
10384;DHT22;5238;43.508;4.980;2023-08-21T11:22:46;44.90;76.70
10384;DHT22;5238;43.508;4.980;2023-08-21T11:25:14;44.80;77.20
10384;DHT22;5238;43.508;4.980;2023-08-21T11:27:41;44.50;77.10
10384;DHT22;5238;43.508;4.980;2023-08-21T11:30:11;44.30;77.50
10384;DHT22;5238;43.508;4.980;2023-08-21T11:32:39;44.00;78.00
10384;DHT22;5238;43.508;4.980;2023-08-21T11:35:07;43.70;79.10
10384;DHT22;5238;43.508;4.980;2023-08-21T11:37:34;43.50;79.80
10384;DHT22;5238;43.508;4.980;2023-08-21T11:40:07;43.20;80.30
10384;DHT22;5238;43.508;4.980;2023-08-21T11:42:35;43.00;80.50
10384;DHT22;5238;43.508;4.980;2023-08-21T11:45:02;42.80;82.00
10384;DHT22;5238;43.508;4.980;2023-08-21T11:47:33;42.70;81.50
10384;DHT22;5238;43.508;4.980;2023-08-21T11:50:04;42.50;81.90
10384;DHT22;5238;43.508;4.980;2023-08-21T11:52:32;42.20;82.00
10384;DHT22;5238;43.508;4.980;2023-08-21T11:55:01;42.00;82.10
10384;DHT22;5238;43.508;4.980;2023-08-21T11:57:28;41.70;82.70
10384;DHT22;5238;43.508;4.980;2023-08-21T11:59:55;41.50;83.10
10384;DHT22;5238;43.508;4.980;2023-08-21T12:02:23;41.20;83.50
10384;DHT22;5238;43.508;4.980;2023-08-21T12:04:54;41.00;84.10
10384;DHT22;5238;43.508;4.980;2023-08-21T12:07:29;40.80;84.50
10384;DHT22;5238;43.508;4.980;2023-08-21T12:09:56;40.50;85.00
10384;DHT22;5238;43.508;4.980;2023-08-21T12:12:23;40.30;85.40
10384;DHT22;5238;43.508;4.980;2023-08-21T12:14:50;40.10;86.40
10384;DHT22;5238;43.508;4.980;2023-08-21T12:17:17;40.00;86.70
10384;DHT22;5238;43.508;4.980;2023-08-21T12:19:44;39.80;86.80
10384;DHT22;5238;43.508;4.980;2023-08-21T12:22:11;39.70;87.60
10384;DHT22;5238;43.508;4.980;2023-08-21T12:24:40;39.50;88.20
10384;DHT22;5238;43.508;4.980;2023-08-21T12:27:07;39.40;88.40
10384;DHT22;5238;43.508;4.980;2023-08-21T12:29:34;39.20;89.20
10384;DHT22;5238;43.508;4.980;2023-08-21T12:32:03;39.20;90.10
10384;DHT22;5238;43.508;4.980;2023-08-21T12:34:29;39.10;90.10
10384;DHT22;5238;43.508;4.980;2023-08-21T12:36:56;39.00;90.00
10384;DHT22;5238;43.508;4.980;2023-08-21T12:39:23;39.00;90.50
10384;DHT22;5238;43.508;4.980;2023-08-21T12:41:52;38.80;90.80
10384;DHT22;5238;43.508;4.980;2023-08-21T12:44:19;38.80;91.00
10384;DHT22;5238;43.508;4.980;2023-08-21T12:46:46;38.70;90.80
10384;DHT22;5238;43.508;4.980;2023-08-21T12:49:13;38.60;91.30
10384;DHT22;5238;43.508;4.980;2023-08-21T12:51:40;38.60;91.30
10384;DHT22;5238;43.508;4.980;2023-08-21T12:54:07;38.50;91.30
10384;DHT22;5238;43.508;4.980;2023-08-21T12:56:34;38.40;91.30
10384;DHT22;5238;43.508;4.980;2023-08-21T12:59:03;38.30;91.30
10384;DHT22;5238;43.508;4.980;2023-08-21T13:01:30;38.20;91.30
10384;DHT22;5238;43.508;4.980;2023-08-21T13:03:59;38.00;91.30
10384;DHT22;5238;43.508;4.980;2023-08-21T13:06:26;37.90;91.30
10384;DHT22;5238;43.508;4.980;2023-08-21T13:08:53;37.80;91.30
10384;DHT22;5238;43.508;4.980;2023-08-21T13:11:20;37.80;91.30
10384;DHT22;5238;43.508;4.980;2023-08-21T13:13:47;37.70;91.30
10384;DHT22;5238;43.508;4.980;2023-08-21T13:16:16;37.60;91.30
10384;DHT22;5238;43.508;4.980;2023-08-21T13:18:43;37.50;91.30
10384;DHT22;5238;43.508;4.980;2023-08-21T13:21:10;37.40;91.30
10384;DHT22;5238;43.508;4.980;2023-08-21T13:23:37;37.30;91.30
10384;DHT22;5238;43.508;4.980;2023-08-21T13:26:03;37.20;91.30
10384;DHT22;5238;43.508;4.980;2023-08-21T13:28:30;37.20;91.30
10384;DHT22;5238;43.508;4.980;2023-08-21T13:30:57;37.10;91.30
10384;DHT22;5238;43.508;4.980;2023-08-21T13:33:26;37.10;91.30
10384;DHT22;5238;43.508;4.980;2023-08-21T13:35:53;37.00;91.30
10384;DHT22;5238;43.508;4.980;2023-08-21T13:38:20;37.00;91.30
10384;DHT22;5238;43.508;4.980;2023-08-21T13:40:47;37.00;91.30
10384;DHT22;5238;43.508;4.980;2023-08-21T13:43:13;36.90;91.30
10384;DHT22;5238;43.508;4.980;2023-08-21T13:45:40;36.80;91.30
10384;DHT22;5238;43.508;4.980;2023-08-21T13:48:08;36.80;91.30
10384;DHT22;5238;43.508;4.980;2023-08-21T13:50:36;36.80;91.30
10384;DHT22;5238;43.508;4.980;2023-08-21T13:53:03;36.70;91.30
10384;DHT22;5238;43.508;4.980;2023-08-21T13:55:30;36.70;91.30
10384;DHT22;5238;43.508;4.980;2023-08-21T13:57:57;36.60;91.30
10384;DHT22;5238;43.508;4.980;2023-08-21T14:00:24;36.60;91.30
10384;DHT22;5238;43.508;4.980;2023-08-21T14:02:51;36.60;91.30
10384;DHT22;5238;43.508;4.980;2023-08-21T14:05:18;36.60;91.30
10384;DHT22;5238;43.508;4.980;2023-08-21T14:07:46;36.60;91.30
10384;DHT22;5238;43.508;4.980;2023-08-21T14:10:13;36.60;91.30
10384;DHT22;5238;43.508;4.980;2023-08-21T14:12:41;36.50;91.30
10384;DHT22;5238;43.508;4.980;2023-08-21T14:15:08;36.50;91.30
10384;DHT22;5238;43.508;4.980;2023-08-21T14:17:35;36.40;91.30
10384;DHT22;5238;43.508;4.980;2023-08-21T14:20:03;36.40;91.30
10384;DHT22;5238;43.508;4.980;2023-08-21T14:22:30;36.40;91.30
10384;DHT22;5238;43.508;4.980;2023-08-21T14:24:58;36.30;91.30
10384;DHT22;5238;43.508;4.980;2023-08-21T14:27:25;36.30;91.30
10384;DHT22;5238;43.508;4.980;2023-08-21T14:29:52;36.20;91.30
10384;DHT22;5238;43.508;4.980;2023-08-21T14:32:19;36.20;91.30
10384;DHT22;5238;43.508;4.980;2023-08-21T14:34:46;36.10;91.30
10384;DHT22;5238;43.508;4.980;2023-08-21T14:37:13;36.10;91.30
10384;DHT22;5238;43.508;4.980;2023-08-21T14:39:41;36.00;91.30
10384;DHT22;5238;43.508;4.980;2023-08-21T14:42:10;36.00;91.30
10384;DHT22;5238;43.508;4.980;2023-08-21T14:44:37;35.90;91.30
10384;DHT22;5238;43.508;4.980;2023-08-21T14:47:04;35.90;91.30
10384;DHT22;5238;43.508;4.980;2023-08-21T14:49:31;35.80;91.30
10384;DHT22;5238;43.508;4.980;2023-08-21T14:51:58;35.80;91.30
10384;DHT22;5238;43.508;4.980;2023-08-21T14:54:25;35.70;91.30
10384;DHT22;5238;43.508;4.980;2023-08-21T14:56:52;35.70;91.30
10384;DHT22;5238;43.508;4.980;2023-08-21T14:59:20;35.70;91.30
10384;DHT22;5238;43.508;4.980;2023-08-21T15:01:47;35.60;91.30
10384;DHT22;5238;43.508;4.980;2023-08-21T15:04:14;35.60;91.30
10384;DHT22;5238;43.508;4.980;2023-08-21T15:06:41;35.60;91.30
10384;DHT22;5238;43.508;4.980;2023-08-21T15:09:08;35.60;91.30
10384;DHT22;5238;43.508;4.980;2023-08-21T15:11:35;35.60;91.30
10384;DHT22;5238;43.508;4.980;2023-08-21T15:14:03;35.60;91.30
10384;DHT22;5238;43.508;4.980;2023-08-21T15:16:31;35.60;91.30
10384;DHT22;5238;43.508;4.980;2023-08-21T15:18:58;35.60;91.30
10384;DHT22;5238;43.508;4.980;2023-08-21T15:21:25;35.60;91.30
10384;DHT22;5238;43.508;4.980;2023-08-21T15:23:52;35.60;91.30
10384;DHT22;5238;43.508;4.980;2023-08-21T15:26:19;35.60;91.30
10384;DHT22;5238;43.508;4.980;2023-08-21T15:28:47;35.60;91.30
10384;DHT22;5238;43.508;4.980;2023-08-21T15:31:14;35.60;91.30
10384;DHT22;5238;43.508;4.980;2023-08-21T15:33:42;35.60;91.30
10384;DHT22;5238;43.508;4.980;2023-08-21T15:36:10;35.50;91.30
10384;DHT22;5238;43.508;4.980;2023-08-21T15:38:37;35.50;91.30
10384;DHT22;5238;43.508;4.980;2023-08-21T15:41:04;35.50;91.30
10384;DHT22;5238;43.508;4.980;2023-08-21T15:43:31;35.50;91.30
10384;DHT22;5238;43.508;4.980;2023-08-21T15:45:58;35.50;91.30
10384;DHT22;5238;43.508;4.980;2023-08-21T15:48:25;35.50;91.30